Time;durP1;ratioP1;P1;durP2;ratioP2;P2;SDS_P1;SDS_P2;PMS_P1;PMS_P2;Temp;Humidity;BMP_temperature;BMP_pressure;BME280_temperature;BME280_humidity;BME280_pressure;Samples;Min_cycle;Max_cycle;Signal;HPM_P1;HPM_P2
2022/01/15 00:00:24;;;;;;;73.75;32.67;;;;;;;-0.21;100.00;101939.47;5100942;28;20047;-74
2022/01/15 00:02:49;;;;;;;73.65;32.85;;;;;;;-0.21;100.00;101939.47;5100964;28;20053;-74
2022/01/15 00:05:15;;;;;;;79.85;32.22;;;;;;;-0.22;100.00;101938.63;5109727;27;20106;-74
2022/01/15 00:07:42;;;;;;;75.93;32.88;;;;;;;-0.23;100.00;101935.00;5109096;28;20096;-74
2022/01/15 00:10:08;;;;;;;79.85;33.08;;;;;;;-0.23;100.00;101924.09;5116916;28;20027;-74
2022/01/15 00:12:40;;;;;;;73.03;31.42;;;;;;;-0.23;100.00;101921.38;5112495;27;20717;-74
2022/01/15 00:15:06;;;;;;;77.33;32.90;;;;;;;-0.24;100.00;101922.41;5114560;27;20028;-74
2022/01/15 00:17:51;;;;;;;76.15;31.65;;;;;;;-0.24;100.00;101919.69;5080287;28;20076;-74
2022/01/15 00:20:23;;;;;;;75.10;31.45;;;;;;;-0.25;100.00;101915.28;5102468;28;20016;-74
2022/01/15 00:22:48;;;;;;;80.13;33.47;;;;;;;-0.25;100.00;101915.28;5101291;28;20122;-75
2022/01/15 00:25:14;;;;;;;80.93;33.58;;;;;;;-0.27;100.00;101916.50;5106083;28;20020;-74
2022/01/15 00:27:40;;;;;;;82.85;33.78;;;;;;;-0.24;100.00;101914.22;5110270;27;20024;-74
2022/01/15 00:30:06;;;;;;;78.40;32.80;;;;;;;-0.26;100.00;101910.81;5090380;28;20039;-75
2022/01/15 00:32:31;;;;;;;78.90;33.63;;;;;;;-0.27;100.00;101909.13;5087549;28;20062;-74
2022/01/15 00:34:57;;;;;;;79.55;32.67;;;;;;;-0.26;100.00;101915.44;5107600;28;20457;-74
2022/01/15 00:37:23;;;;;;;79.20;33.47;;;;;;;-0.26;100.00;101918.16;5112450;28;20023;-74
2022/01/15 00:39:48;;;;;;;75.68;33.45;;;;;;;-0.27;100.00;101922.78;5119882;27;20032;-74
2022/01/15 00:42:14;;;;;;;76.85;33.72;;;;;;;-0.28;100.00;101921.09;5108020;28;20027;-74
2022/01/15 00:44:41;;;;;;;78.97;33.33;;;;;;;-0.29;100.00;101919.41;5116688;27;20051;-74
2022/01/15 00:47:07;;;;;;;81.05;33.00;;;;;;;-0.30;100.00;101917.72;5111270;27;20430;-74
2022/01/15 00:49:32;;;;;;;73.95;32.67;;;;;;;-0.29;100.00;101922.13;5119306;27;20027;-74
2022/01/15 00:51:58;;;;;;;76.40;33.65;;;;;;;-0.30;100.00;101916.88;5114244;27;20027;-74
2022/01/15 00:54:24;;;;;;;78.95;33.17;;;;;;;-0.30;100.00;101914.97;5105445;28;20110;-74
2022/01/15 00:56:49;;;;;;;81.30;33.25;;;;;;;-0.30;100.00;101911.41;5128618;27;20031;-74
2022/01/15 00:59:17;;;;;;;84.10;34.95;;;;;;;-0.29;100.00;101908.47;5113584;28;20637;-75
2022/01/15 01:01:43;;;;;;;79.97;33.40;;;;;;;-0.32;100.00;101902.56;5132461;27;20110;-74
2022/01/15 01:04:08;;;;;;;80.88;33.85;;;;;;;-0.31;100.00;101910.53;5111319;27;20035;-74
2022/01/15 01:06:33;;;;;;;80.93;32.80;;;;;;;-0.32;100.00;101914.31;5118529;27;20027;-74
2022/01/15 01:08:59;;;;;;;77.47;32.75;;;;;;;-0.32;100.00;101906.13;5129341;27;20028;-74
2022/01/15 01:11:43;;;;;;;79.18;31.90;;;;;;;-0.31;100.00;101909.69;5096770;28;20035;-74
2022/01/15 01:22:53;;;;;;;82.03;34.22;;;;;;;-0.34;100.00;101882.78;5109116;28;20551;-74
2022/01/15 01:24:53;;;;;;;83.55;32.70;;;;;;;-0.36;100.00;101880.25;5107744;27;20042;-74
2022/01/15 01:27:30;;;;;;;81.40;33.95;;;;;;;-0.37;100.00;101881.25;5116653;28;20027;-74
2022/01/15 01:34:52;;;;;;;85.22;34.22;;;;;;;-0.38;100.00;101882.31;5108154;28;20031;-74
2022/01/15 01:37:26;;;;;;;83.43;33.65;;;;;;;-0.36;100.00;101877.53;5100707;28;20024;-74
2022/01/15 01:40:05;;;;;;;82.45;34.03;;;;;;;-0.37;100.00;101877.69;5111268;28;20032;-74
2022/01/15 01:42:44;;;;;;;88.22;35.85;;;;;;;-0.35;100.00;101872.91;5103049;28;20049;-74
2022/01/15 01:45:13;;;;;;;87.72;34.67;;;;;;;-0.38;100.00;101870.56;5110544;28;20035;-74
2022/01/15 01:47:40;;;;;;;92.82;36.75;;;;;;;-0.37;100.00;101872.22;5091211;28;20085;-74
2022/01/15 01:50:12;;;;;;;93.95;36.13;;;;;;;-0.38;100.00;101865.09;5103658;28;20034;-74
2022/01/15 01:52:38;;;;;;;87.07;35.65;;;;;;;-0.39;100.00;101861.53;5061626;28;20380;-74
2022/01/15 01:55:04;;;;;;;86.15;35.58;;;;;;;-0.40;100.00;101854.34;5083848;28;20026;-74
2022/01/15 01:57:29;;;;;;;88.32;34.53;;;;;;;-0.39;100.00;101850.59;5098736;28;20158;-74
2022/01/15 01:59:55;;;;;;;88.00;34.63;;;;;;;-0.41;100.00;101852.66;5097039;28;20043;-74
2022/01/15 02:02:20;;;;;;;91.82;34.80;;;;;;;-0.39;100.00;101850.59;5077243;28;20043;-74
2022/01/15 02:04:46;;;;;;;87.65;35.05;;;;;;;-0.39;100.00;101836.97;5098929;28;20047;-74
2022/01/15 02:07:11;;;;;;;89.20;34.42;;;;;;;-0.39;100.00;101834.22;5091319;28;20032;-74
2022/01/15 02:09:38;;;;;;;92.05;36.60;;;;;;;-0.38;100.00;101835.91;5092134;28;20023;-75
2022/01/15 02:12:04;;;;;;;87.93;35.22;;;;;;;-0.38;100.00;101838.63;5096252;28;20027;-74
2022/01/15 02:14:30;;;;;;;92.30;37.28;;;;;;;-0.38;100.00;101838.63;5105111;28;20035;-74
2022/01/15 02:16:56;;;;;;;86.85;35.05;;;;;;;-0.39;100.00;101841.53;5091021;28;20032;-74
2022/01/15 02:19:31;;;;;;;89.22;35.40;;;;;;;-0.40;100.00;101835.25;5073342;28;20035;-75
2022/01/15 02:24:41;;;;;;;82.88;34.90;;;;;;;-0.41;100.00;101843.63;5107786;28;20057;-74
2022/01/15 02:27:07;;;;;;;90.00;36.03;;;;;;;-0.42;100.00;101836.47;5086561;27;20479;-74
2022/01/15 02:29:32;;;;;;;88.55;34.75;;;;;;;-0.40;100.00;101832.50;5097457;28;20418;-74
2022/01/15 02:31:58;;;;;;;93.93;36.58;;;;;;;-0.39;100.00;101831.50;5101708;28;20051;-74
2022/01/15 02:34:23;;;;;;;84.00;34.92;;;;;;;-0.40;100.00;101834.41;5109384;28;20038;-74
2022/01/15 02:36:49;;;;;;;83.85;35.10;;;;;;;-0.40;100.00;101837.97;5106926;28;20027;-74
2022/01/15 02:39:14;;;;;;;89.28;35.42;;;;;;;-0.39;100.00;101825.16;5113200;28;20039;-74
2022/01/15 02:41:41;;;;;;;88.65;35.83;;;;;;;-0.39;100.00;101831.50;5113290;28;20031;-74
2022/01/15 02:44:10;;;;;;;89.50;36.55;;;;;;;-0.38;100.00;101824.97;5111129;28;20039;-74
2022/01/15 02:48:00;;;;;;;89.45;35.50;;;;;;;-0.41;100.00;101811.72;5114661;28;20551;-75
2022/01/15 02:49:22;;;;;;;85.20;34.15;;;;;;;-0.41;100.00;101811.72;5108928;28;20020;-74
2022/01/15 02:51:48;;;;;;;84.22;33.80;;;;;;;-0.43;100.00;101802.88;5109215;28;20591;-74
2022/01/15 02:54:13;;;;;;;91.25;35.33;;;;;;;-0.42;100.00;101799.09;5101675;28;20480;-75
2022/01/15 02:56:40;;;;;;;89.85;36.53;;;;;;;-0.41;100.00;101800.81;5109415;28;20081;-74
2022/01/15 02:59:07;;;;;;;92.20;36.08;;;;;;;-0.42;100.00;101788.16;5090213;28;20032;-74
2022/01/15 03:01:33;;;;;;;90.90;35.40;;;;;;;-0.41;100.00;101789.88;5102350;28;20112;-74
2022/01/15 03:03:58;;;;;;;89.97;34.40;;;;;;;-0.40;100.00;101794.28;5108748;28;20028;-74
2022/01/15 03:06:24;;;;;;;88.53;35.03;;;;;;;-0.42;100.00;101793.63;5103381;28;20054;-74
2022/01/15 03:08:50;;;;;;;94.43;36.22;;;;;;;-0.41;100.00;101789.03;5109434;28;20032;-74
2022/01/15 03:11:15;;;;;;;90.45;35.58;;;;;;;-0.40;100.00;101794.28;5111971;28;20464;-75
2022/01/15 03:13:42;;;;;;;88.68;35.60;;;;;;;-0.41;100.00;101781.69;5115603;28;20059;-74
2022/01/15 03:16:08;;;;;;;85.95;34.50;;;;;;;-0.41;100.00;101789.88;5112329;28;20038;-74
2022/01/15 03:18:34;;;;;;;87.30;34.80;;;;;;;-0.42;100.00;101782.72;5091661;28;20103;-74
2022/01/15 03:20:59;;;;;;;90.25;35.75;;;;;;;-0.40;100.00;101785.25;5105484;28;20499;-74
2022/01/15 03:23:25;;;;;;;87.63;35.35;;;;;;;-0.41;100.00;101792.63;5102086;28;20024;-74
2022/01/15 03:25:50;;;;;;;81.40;34.78;;;;;;;-0.41;100.00;101789.88;5104074;28;20028;-75
2022/01/15 03:28:16;;;;;;;88.68;35.63;;;;;;;-0.39;100.00;101776.03;5096376;28;20035;-74
2022/01/15 03:30:41;;;;;;;82.78;34.28;;;;;;;-0.41;100.00;101784.44;5105951;28;20511;-74
2022/01/15 03:33:07;;;;;;;82.25;33.95;;;;;;;-0.41;100.00;101789.03;5107765;28;20051;-74
2022/01/15 03:35:33;;;;;;;81.72;33.35;;;;;;;-0.41;100.00;101783.59;5113859;28;20025;-74
2022/01/15 03:37:58;;;;;;;87.25;35.33;;;;;;;-0.42;100.00;101771.78;5112785;28;20388;-74
2022/01/15 03:40:24;;;;;;;80.88;33.55;;;;;;;-0.41;100.00;101781.69;5112091;28;20028;-74
2022/01/15 03:42:49;;;;;;;86.85;35.70;;;;;;;-0.40;100.00;101771.63;5104984;28;20054;-74
2022/01/15 03:45:16;;;;;;;89.75;36.08;;;;;;;-0.42;100.00;101766.34;5107176;28;20059;-74
2022/01/15 03:47:44;;;;;;;86.28;34.10;;;;;;;-0.43;100.00;101759.19;5083385;28;20440;-74
2022/01/15 03:50:10;;;;;;;82.13;32.78;;;;;;;-0.43;100.00;101752.91;5084985;28;20508;-74
2022/01/15 03:52:36;;;;;;;81.20;32.72;;;;;;;-0.43;100.00;101761.09;5111339;27;20071;-74
2022/01/15 03:55:02;;;;;;;83.90;32.83;;;;;;;-0.44;100.00;101752.06;5093160;28;20028;-74
2022/01/15 03:57:27;;;;;;;84.07;33.05;;;;;;;-0.44;100.00;101756.69;5110738;28;20028;-73
2022/01/15 03:59:53;;;;;;;84.88;34.45;;;;;;;-0.43;100.00;101756.47;5114006;28;20040;-74
2022/01/15 04:02:18;;;;;;;84.32;33.10;;;;;;;-0.42;100.00;101755.41;5116571;28;20027;-74
2022/01/15 04:04:44;;;;;;;88.93;34.90;;;;;;;-0.43;100.00;101750.16;5109058;28;20488;-74
2022/01/15 04:07:09;;;;;;;87.72;33.58;;;;;;;-0.46;100.00;101748.66;5117394;28;20035;-74
2022/01/15 04:09:35;;;;;;;87.38;33.50;;;;;;;-0.47;100.00;101741.53;5115051;28;20035;-74
2022/01/15 04:12:00;;;;;;;86.30;34.97;;;;;;;-0.46;100.00;101748.66;5111225;28;20027;-74
2022/01/15 04:14:25;;;;;;;83.97;33.65;;;;;;;-0.45;100.00;101742.16;5116424;28;20026;-74
2022/01/15 04:16:51;;;;;;;79.38;32.78;;;;;;;-0.47;100.00;101736.91;5115220;28;20011;-74
2022/01/15 04:19:16;;;;;;;82.97;34.65;;;;;;;-0.47;100.00;101745.09;5109790;28;20035;-75
2022/01/15 04:21:42;;;;;;;84.25;33.80;;;;;;;-0.47;100.00;101746.97;5107985;28;20085;-74
2022/01/15 04:24:07;;;;;;;88.82;34.78;;;;;;;-0.46;100.00;101748.66;5111641;28;20027;-74
2022/01/15 04:26:33;;;;;;;80.50;33.63;;;;;;;-0.46;100.00;101745.94;5112986;28;20089;-75
2022/01/15 04:29:03;;;;;;;86.03;34.65;;;;;;;-0.48;100.00;101724.28;5114003;28;20036;-74
2022/01/15 04:31:35;;;;;;;87.85;34.83;;;;;;;-0.47;100.00;101731.44;5114186;27;20043;-74
2022/01/15 04:34:01;;;;;;;83.47;34.90;;;;;;;-0.50;100.00;101731.84;5134993;27;20035;-74
2022/01/15 04:36:26;;;;;;;91.97;35.60;;;;;;;-0.49;100.00;101732.66;5086681;27;20394;-75
2022/01/15 04:38:52;;;;;;;93.15;35.90;;;;;;;-0.50;100.00;101720.06;5114519;27;20028;-74
2022/01/15 04:41:17;;;;;;;96.25;37.70;;;;;;;-0.52;100.00;101714.78;5137646;27;20038;-75
2022/01/15 04:43:43;;;;;;;95.97;35.70;;;;;;;-0.53;100.00;101704.06;5118361;27;20023;-74
2022/01/15 04:46:08;;;;;;;92.28;36.05;;;;;;;-0.53;100.00;101717.69;5112911;28;20039;-74
2022/01/15 04:48:34;;;;;;;94.20;35.17;;;;;;;-0.53;100.00;101723.16;5112464;27;20391;-74
2022/01/15 04:50:59;;;;;;;91.63;34.83;;;;;;;-0.53;100.00;101725.88;5093137;27;20015;-74
2022/01/15 04:53:24;;;;;;;92.53;34.83;;;;;;;-0.54;100.00;101724.22;5128916;27;20038;-74
2022/01/15 04:55:50;;;;;;;95.30;36.67;;;;;;;-0.55;100.00;101725.25;5115065;27;20036;-74
2022/01/15 04:58:15;;;;;;;95.50;36.88;;;;;;;-0.54;100.00;101721.47;5110475;27;20048;-74
2022/01/15 05:00:41;;;;;;;95.57;37.50;;;;;;;-0.56;100.00;101720.81;5133227;27;20032;-74
2022/01/15 05:03:06;;;;;;;95.43;36.97;;;;;;;-0.56;100.00;101720.81;5133745;27;20031;-74
2022/01/15 05:05:32;;;;;;;97.75;35.63;;;;;;;-0.57;100.00;101716.41;5127973;27;20409;-74
2022/01/15 05:07:57;;;;;;;91.68;35.50;;;;;;;-0.55;100.00;101725.25;5136187;27;20403;-74
2022/01/15 05:10:27;;;;;;;90.13;35.88;;;;;;;-0.57;100.00;101721.88;5132204;27;20015;-74
2022/01/15 05:12:55;;;;;;;92.68;36.95;;;;;;;-0.53;100.00;101726.75;5109337;27;20106;-74
2022/01/15 05:15:21;;;;;;;87.97;35.10;;;;;;;-0.55;100.00;101717.06;5117655;27;20031;-74
2022/01/15 05:17:47;;;;;;;89.15;35.83;;;;;;;-0.56;100.00;101727.13;5091794;27;20042;-74
2022/01/15 05:20:16;;;;;;;85.65;35.53;;;;;;;-0.56;100.00;101721.66;5112849;27;20394;-74
2022/01/15 05:22:42;;;;;;;92.35;36.67;;;;;;;-0.55;100.00;101714.34;5117351;27;20033;-75
2022/01/15 05:25:08;;;;;;;90.97;36.58;;;;;;;-0.52;100.00;101714.78;5120250;27;20027;-74
2022/01/15 05:27:36;;;;;;;91.85;34.65;;;;;;;-0.52;100.00;101711.22;5129279;27;20035;-74
2022/01/15 05:30:05;;;;;;;89.65;35.38;;;;;;;-0.52;100.00;101709.34;5135711;27;20027;-74
2022/01/15 05:32:31;;;;;;;95.00;36.20;;;;;;;-0.53;100.00;101710.38;5108077;27;20514;-74
2022/01/15 05:34:57;;;;;;;97.45;36.22;;;;;;;-0.51;100.00;101718.38;5116289;27;20632;-75
2022/01/15 05:37:24;;;;;;;93.03;36.60;;;;;;;-0.52;100.00;101713.97;5118225;27;20498;-75
2022/01/15 05:39:50;;;;;;;88.70;35.22;;;;;;;-0.53;100.00;101713.13;5115708;27;20027;-75
2022/01/15 05:42:15;;;;;;;96.50;36.22;;;;;;;-0.52;100.00;101717.53;5130313;27;20042;-74
2022/01/15 05:44:41;;;;;;;90.07;35.08;;;;;;;-0.53;100.00;101717.69;5094675;27;20028;-74
2022/01/15 05:47:07;;;;;;;94.72;35.80;;;;;;;-0.51;100.00;101715.63;5114550;27;20159;-74
2022/01/15 05:49:33;;;;;;;93.85;36.30;;;;;;;-0.51;100.00;101715.63;5115200;27;20023;-75
2022/01/15 05:51:58;;;;;;;92.55;35.95;;;;;;;-0.51;100.00;101719.19;5118127;27;20019;-75
2022/01/15 05:54:24;;;;;;;90.78;35.17;;;;;;;-0.51;100.00;101718.38;5126663;27;20038;-75
2022/01/15 05:56:49;;;;;;;91.70;36.03;;;;;;;-0.51;100.00;101707.44;5099910;27;20032;-74
2022/01/15 05:59:15;;;;;;;94.40;35.78;;;;;;;-0.51;100.00;101712.91;5119133;27;20031;-75
2022/01/15 06:01:40;;;;;;;87.55;35.03;;;;;;;-0.52;100.00;101714.78;5092579;27;20034;-74
2022/01/15 06:04:06;;;;;;;90.85;35.08;;;;;;;-0.51;100.00;101715.63;5112011;27;20415;-74
2022/01/15 06:06:31;;;;;;;90.38;34.42;;;;;;;-0.53;100.00;101712.25;5115050;27;20574;-75
2022/01/15 06:08:57;;;;;;;92.28;34.42;;;;;;;-0.53;100.00;101721.31;5131548;27;20046;-75
2022/01/15 06:11:23;;;;;;;85.60;34.38;;;;;;;-0.53;100.00;101715.84;5099785;27;20019;-74
2022/01/15 06:13:49;;;;;;;91.82;36.10;;;;;;;-0.53;100.00;101715.84;5110885;28;20686;-74
2022/01/15 06:16:14;;;;;;;85.57;34.17;;;;;;;-0.52;100.00;101706.59;5123384;27;20047;-74
2022/01/15 06:18:40;;;;;;;90.38;34.47;;;;;;;-0.51;100.00;101708.28;5132683;27;20023;-74
2022/01/15 06:21:06;;;;;;;95.05;35.67;;;;;;;-0.53;100.00;101709.50;5114928;27;20037;-75
2022/01/15 06:23:31;;;;;;;93.57;34.33;;;;;;;-0.52;100.00;101705.78;5097974;28;20036;-74
2022/01/15 06:25:57;;;;;;;91.88;34.75;;;;;;;-0.52;100.00;101713.97;5127150;27;20027;-74
2022/01/15 06:28:22;;;;;;;90.53;36.00;;;;;;;-0.55;100.00;101712.44;5097968;27;20024;-74
2022/01/15 06:30:48;;;;;;;90.68;34.55;;;;;;;-0.53;100.00;101714.97;5135430;27;20403;-74
2022/01/15 06:33:13;;;;;;;90.05;35.33;;;;;;;-0.54;100.00;101713.28;5127699;27;20083;-74
2022/01/15 06:35:39;;;;;;;92.97;34.20;;;;;;;-0.53;100.00;101717.69;5129483;27;20281;-74
2022/01/15 06:38:04;;;;;;;91.68;35.45;;;;;;;-0.52;100.00;101708.50;5086771;27;20027;-75
2022/01/15 06:40:31;;;;;;;84.32;32.78;;;;;;;-0.55;100.00;101709.72;5126340;27;20054;-74
2022/01/15 06:42:57;;;;;;;95.07;35.85;;;;;;;-0.55;100.00;101706.16;5117275;27;20038;-74
2022/01/15 06:45:23;;;;;;;87.40;32.90;;;;;;;-0.56;100.00;101704.44;5095579;28;20555;-74
2022/01/15 06:47:48;;;;;;;91.03;36.03;;;;;;;-0.56;100.00;101709.91;5126390;27;20024;-74
2022/01/15 06:50:14;;;;;;;90.57;34.78;;;;;;;-0.56;100.00;101709.91;5135745;27;20472;-74
2022/01/15 06:52:39;;;;;;;87.93;34.25;;;;;;;-0.56;100.00;101707.16;5092993;28;20049;-74
2022/01/15 06:55:06;;;;;;;92.05;34.40;;;;;;;-0.59;100.00;101708.41;5088291;28;20035;-74
2022/01/15 06:57:32;;;;;;;89.05;35.25;;;;;;;-0.58;100.00;101709.28;5122870;28;20035;-74
2022/01/15 06:59:57;;;;;;;99.88;36.38;;;;;;;-0.59;100.00;101718.47;5127198;28;20040;-74
2022/01/15 07:02:23;;;;;;;91.90;35.75;;;;;;;-0.58;100.00;101712.00;5117489;28;20080;-75
2022/01/15 07:04:48;;;;;;;88.45;33.97;;;;;;;-0.59;100.00;101718.47;5110727;28;20038;-74
2022/01/15 07:07:14;;;;;;;94.65;35.00;;;;;;;-0.60;100.00;101714.91;5127153;28;20068;-74
2022/01/15 07:09:39;;;;;;;90.95;33.95;;;;;;;-0.60;100.00;101714.06;5123398;27;20034;-75
2022/01/15 07:12:05;;;;;;;92.70;35.55;;;;;;;-0.61;100.00;101715.94;5113337;28;20189;-74
2022/01/15 07:14:31;;;;;;;90.45;34.30;;;;;;;-0.59;100.00;101715.75;5128243;27;20452;-74
2022/01/15 07:16:56;;;;;;;87.78;32.13;;;;;;;-0.57;100.00;101721.88;5136819;27;20471;-75
2022/01/15 07:19:22;;;;;;;89.80;34.67;;;;;;;-0.60;100.00;101716.78;5129970;27;20491;-74
2022/01/15 07:21:47;;;;;;;90.07;33.78;;;;;;;-0.59;100.00;101715.75;5140135;27;20475;-75
2022/01/15 07:24:13;;;;;;;84.40;33.10;;;;;;;-0.59;100.00;101715.75;5114403;28;20043;-74
2022/01/15 07:26:39;;;;;;;91.32;34.92;;;;;;;-0.61;100.00;101713.22;5102453;27;20019;-74
2022/01/15 07:29:12;;;;;;;90.88;35.10;;;;;;;-0.61;100.00;101712.34;5119721;27;20031;-74
2022/01/15 07:31:37;;;;;;;;;;;;;;;-0.59;100.00;101711.13;5107256;28;20051;-74
2022/01/15 07:34:03;;;;;;;87.75;34.05;;;;;;;-0.61;100.00;101707.75;5110833;28;19911;-74
2022/01/15 07:36:29;;;;;;;84.75;32.67;;;;;;;-0.62;100.00;101707.94;5117175;28;20035;-75
2022/01/15 07:38:54;;;;;;;90.88;34.28;;;;;;;-0.60;100.00;101708.59;5102118;28;20036;-74
2022/01/15 07:41:21;;;;;;;93.13;33.55;;;;;;;-0.60;100.00;101712.19;5111118;28;20024;-74
2022/01/15 07:43:46;;;;;;;88.63;34.25;;;;;;;-0.59;100.00;101718.47;5118466;28;20035;-74
2022/01/15 07:46:12;;;;;;;76.72;31.27;;;;;;;-0.59;100.00;101721.19;5114763;28;20026;-74
2022/01/15 07:48:37;;;;;;;90.82;34.72;;;;;;;-0.58;100.00;101723.75;5114875;28;20506;-74
2022/01/15 07:51:03;;;;;;;90.05;33.38;;;;;;;-0.57;100.00;101724.59;5115471;28;20047;-74
2022/01/15 07:53:29;;;;;;;85.90;32.03;;;;;;;-0.59;100.00;101721.19;5111272;28;20035;-74
2022/01/15 07:55:54;;;;;;;86.65;34.13;;;;;;;-0.60;100.00;101725.81;5099998;28;20023;-74
2022/01/15 07:58:20;;;;;;;87.57;33.63;;;;;;;-0.60;100.00;101724.97;5117026;28;20032;-74
2022/01/15 08:00:45;;;;;;;84.82;31.02;;;;;;;-0.59;100.00;101723.94;5074516;28;20047;-74
2022/01/15 08:03:11;;;;;;;86.03;33.28;;;;;;;-0.59;100.00;101721.19;5113622;28;20024;-74
2022/01/15 08:05:36;;;;;;;79.10;30.73;;;;;;;-0.57;100.00;101725.44;5109891;28;20034;-74
2022/01/15 08:08:02;;;;;;;85.85;32.22;;;;;;;-0.57;100.00;101725.44;5108572;28;20693;-74
2022/01/15 08:10:27;;;;;;;88.20;33.25;;;;;;;-0.58;100.00;101721.03;5116129;28;20635;-74
2022/01/15 08:12:53;;;;;;;85.05;33.33;;;;;;;-0.58;100.00;101706.53;5108406;28;20484;-74
2022/01/15 08:15:19;;;;;;;87.68;32.20;;;;;;;-0.55;100.00;101714.34;5112722;28;20361;-74
2022/01/15 08:17:45;;;;;;;82.93;31.27;;;;;;;-0.55;100.00;101720.63;5115518;28;20028;-74
2022/01/15 08:20:11;;;;;;;82.05;32.30;;;;;;;-0.56;100.00;101713.47;5107264;28;20031;-74
2022/01/15 08:22:38;;;;;;;80.53;30.60;;;;;;;-0.56;100.00;101721.66;5112162;28;20031;-74
2022/01/15 08:25:04;;;;;;;76.85;31.17;;;;;;;-0.52;100.00;101717.53;5096422;28;20028;-74
2022/01/15 08:27:30;;;;;;;82.63;32.75;;;;;;;-0.54;100.00;101718.75;5106018;28;20028;-74
2022/01/15 08:29:55;;;;;;;74.88;30.00;;;;;;;-0.51;100.00;101721.09;5115506;28;20044;-74
2022/01/15 08:32:21;;;;;;;81.57;30.92;;;;;;;-0.50;100.00;101714.63;5111760;27;20043;-74
2022/01/15 08:34:46;;;;;;;72.53;29.67;;;;;;;-0.50;100.00;101720.06;5137074;27;20023;-74
2022/01/15 08:37:12;;;;;;;70.53;27.95;;;;;;;-0.48;100.00;101724.28;5137363;27;20031;-74
2022/01/15 08:39:38;;;;;;;74.10;30.13;;;;;;;-0.49;100.00;101719.88;5137601;27;20027;-74
2022/01/15 08:42:06;;;;;;;69.20;28.10;;;;;;;-0.49;100.00;101721.75;5117464;27;20024;-74
2022/01/15 08:44:32;;;;;;;69.78;27.75;;;;;;;-0.49;100.00;101717.13;5139391;27;20121;-74
2022/01/15 08:47:01;;;;;;;67.43;28.02;;;;;;;-0.47;100.00;101715.06;5114408;27;20031;-74
2022/01/15 08:49:26;;;;;;;68.15;27.90;;;;;;;-0.46;100.00;101715.91;5121632;27;20027;-74
2022/01/15 08:51:52;;;;;;;70.47;28.08;;;;;;;-0.45;100.00;101717.59;5110630;27;20031;-74
2022/01/15 08:54:17;;;;;;;68.93;27.80;;;;;;;-0.42;100.00;101711.75;5135961;27;20031;-74
2022/01/15 08:56:43;;;;;;;71.07;29.05;;;;;;;-0.42;100.00;101711.75;5136516;27;20031;-74
2022/01/15 08:59:08;;;;;;;61.67;26.33;;;;;;;-0.40;100.00;101717.88;5115420;27;20034;-74
2022/01/15 09:01:34;;;;;;;65.38;27.58;;;;;;;-0.41;100.00;101708.00;5118336;27;20042;-75
2022/01/15 09:03:59;;;;;;;66.80;27.88;;;;;;;-0.35;100.00;101704.50;5116728;27;20034;-75
2022/01/15 09:06:25;;;;;;;63.22;26.38;;;;;;;-0.34;100.00;101703.44;5133832;27;20031;-75
2022/01/15 09:08:51;;;;;;;63.13;26.23;;;;;;;-0.32;100.00;101703.25;5109963;27;20403;-75
2022/01/15 09:11:16;;;;;;;69.57;27.67;;;;;;;-0.30;100.00;101709.38;5137394;27;20027;-75
2022/01/15 09:13:43;;;;;;;58.85;25.60;;;;;;;-0.27;100.00;101706.25;5097247;27;20031;-75
2022/01/15 09:16:08;;;;;;;62.15;26.02;;;;;;;-0.25;100.00;101702.31;5119803;27;20128;-75
2022/01/15 09:18:34;;;;;;;54.38;24.27;;;;;;;-0.24;100.00;101703.97;5113608;27;20032;-74
2022/01/15 09:21:01;;;;;;;55.58;23.77;;;;;;;-0.21;100.00;101707.38;5132353;27;20032;-74
2022/01/15 09:23:26;;;;;;;58.25;24.30;;;;;;;-0.19;100.00;101697.94;5104174;27;20084;-74
2022/01/15 09:25:52;;;;;;;57.33;23.63;;;;;;;-0.15;100.00;101703.88;5134873;27;20114;-75
2022/01/15 09:31:10;;;;;;;59.10;24.95;;;;;;;-0.10;100.00;101704.97;5082527;27;20110;-75
2022/01/15 09:33:36;;;;;;;54.97;24.80;;;;;;;-0.08;100.00;101702.06;5091771;27;20042;-74
2022/01/15 09:36:01;;;;;;;60.60;25.45;;;;;;;-0.05;100.00;101701.66;5119132;27;20027;-72
2022/01/15 09:38:27;;;;;;;55.33;23.95;;;;;;;-0.02;100.00;101706.75;5051401;28;20039;-74
2022/01/15 09:40:52;;;;;;;56.38;24.58;;;;;;;0.05;100.00;101713.09;5098413;27;20043;-74
2022/01/15 09:43:18;;;;;;;55.28;23.95;;;;;;;0.07;100.00;101713.75;5097713;27;20039;-74
2022/01/15 09:45:44;;;;;;;56.13;24.80;;;;;;;0.10;100.00;101716.09;5123264;27;20031;-74
2022/01/15 09:48:09;;;;;;;51.10;23.52;;;;;;;0.14;100.00;101714.69;5111971;27;20042;-74
2022/01/15 09:50:43;;;;;;;57.67;25.05;;;;;;;0.15;100.00;101716.34;5116612;27;20031;-74
2022/01/15 09:53:10;;;;;;;55.85;24.33;;;;;;;0.19;100.00;101716.78;5079041;27;20027;-74
2022/01/15 09:55:36;;;;;;;50.88;24.25;;;;;;;0.24;100.00;101722.53;5133444;27;20033;-74
2022/01/15 09:58:02;;;;;;;54.05;24.27;;;;;;;0.27;100.00;101713.94;5126983;27;20395;-74
2022/01/15 10:00:28;;;;;;;54.30;24.33;;;;;;;0.31;100.00;101706.22;5133864;27;20023;-74
2022/01/15 10:02:54;;;;;;;47.97;23.00;;;;;;;0.33;100.00;101715.88;5112666;27;20039;-75
2022/01/15 10:05:20;;;;;;;59.30;24.80;;;;;;;0.36;100.00;101710.03;5117252;27;20026;-75
2022/01/15 10:08:02;;;;;;;57.25;25.63;;;;;;;0.39;100.00;101715.09;5115325;27;20472;-75
2022/01/15 10:10:29;;;;;;;50.85;23.75;;;;;;;0.42;100.00;101709.25;5111194;27;20106;-75
2022/01/15 10:12:55;;;;;;;54.80;24.08;;;;;;;0.45;100.00;101702.53;5102696;27;20062;-75
2022/01/15 10:15:21;;;;;;;55.65;24.45;;;;;;;0.46;100.00;101693.28;5090941;28;20123;-75
2022/01/15 10:17:46;;;;;;;58.88;24.80;;;;;;;0.50;100.00;101700.03;5126150;27;20104;-75
2022/01/15 10:20:18;;;;;;;54.28;24.20;;;;;;;0.53;100.00;101687.84;5115228;27;20434;-75
2022/01/15 10:22:48;;;;;;;54.13;23.88;;;;;;;0.57;100.00;101690.00;5128346;27;20092;-75
2022/01/15 10:25:19;;;;;;;53.47;24.42;;;;;;;0.59;100.00;101687.91;5098157;27;20042;-75
2022/01/15 10:27:52;;;;;;;52.90;24.00;;;;;;;0.63;100.00;101685.63;5116748;27;20041;-75
2022/01/15 10:30:18;;;;;;;;;;;;;;;0.65;100.00;101692.59;5113564;27;20023;-75
2022/01/15 10:33:06;;;;;;;54.00;23.63;;;;;;;0.71;100.00;101695.56;5124261;27;19916;-75
2022/01/15 10:35:32;;;;;;;52.97;24.25;;;;;;;0.70;100.00;101694.72;5130809;27;20071;-75
2022/01/15 10:38:06;;;;;;;54.30;24.38;;;;;;;0.73;100.00;101694.31;5107418;27;20043;-75
2022/01/15 10:40:50;;;;;;;53.67;25.52;;;;;;;0.77;100.00;101697.50;5121299;27;20051;-75
2022/01/15 10:43:17;;;;;;;59.25;25.83;;;;;;;0.79;100.00;101695.41;5114725;27;20084;-76
2022/01/15 10:45:47;;;;;;;53.17;24.65;;;;;;;0.82;100.00;101700.47;5087662;28;20110;-75
2022/01/15 10:48:20;;;;;;;55.33;24.88;;;;;;;0.86;100.00;101694.41;5086533;28;20066;-75
2022/01/15 10:50:56;;;;;;;60.15;26.92;;;;;;;0.89;100.00;101690.41;5087059;28;20016;-76
2022/01/15 10:53:32;;;;;;;59.58;25.92;;;;;;;0.94;100.00;101692.56;5117228;27;20501;-75
2022/01/15 10:55:57;;;;;;;58.50;26.02;;;;;;;0.98;100.00;101702.91;5104983;28;20033;-75
2022/01/15 10:58:23;;;;;;;56.72;24.55;;;;;;;1.01;100.00;101701.66;5088081;28;20077;-75
2022/01/15 11:00:51;;;;;;;64.05;26.88;;;;;;;1.06;100.00;101699.16;5101863;28;20024;-75
2022/01/15 11:03:17;;;;;;;59.03;26.25;;;;;;;1.09;100.00;101702.34;5129396;28;20039;-76
2022/01/15 11:05:44;;;;;;;62.53;26.10;;;;;;;1.12;100.00;101695.63;5071450;28;20047;-75
2022/01/15 11:11:55;;;;;;;58.72;25.92;;;;;;;1.21;100.00;101702.59;5114184;28;20019;-75
2022/01/15 11:14:20;;;;;;;64.43;28.33;;;;;;;1.24;100.00;101690.41;5097598;28;20070;-76
2022/01/15 11:16:46;;;;;;;63.08;27.88;;;;;;;1.28;100.00;101692.53;5101212;28;20027;-75
2022/01/15 11:19:12;;;;;;;65.97;28.60;;;;;;;1.30;100.00;101692.31;5127274;28;20028;-75
2022/01/15 11:21:37;;;;;;;69.50;27.75;;;;;;;1.34;100.00;101685.41;5092012;28;20049;-75
2022/01/15 11:24:06;;;;;;;67.70;28.40;;;;;;;1.37;100.00;101693.19;5082152;28;20032;-75